KTIK/TIK METAR and TAF weather

Enter ICAO airport designator
Station Type Date Time Source
KTIK METAR 2023/02/05 12:55 UTC NOAA

KTIK 051255Z AUTO 00000KT 10SM CLR 04/03 A3012 RMK AO2 SLP210 T00360030 $


Station Type Date Time Source
KTIK Decoded METAR 2023/02/05 12:55 UTC NOAA

Tinker Air Force Base, OK, United States (KTIK) 35-25N 097-23W 397M
Feb 05, 2023 - 07:55 AM EST / 2023.02.05 1255 UTC
Wind: Calm:0
Visibility: 10 mile(s):0
Sky conditions: clear
Temperature: 38.5 F (3.6 C)
Dew Point: 37.4 F (3.0 C)
Relative Humidity: 95%
Pressure (altimeter): 30.12 in. Hg (1019 hPa)
ob: KTIK 051255Z AUTO 00000KT 10SM CLR 04/03 A3012 RMK AO2 SLP210 T00360030
cycle: 13

Station Type Date Time Source
KTIK TAF 2023/02/05 10:59 UTC NOAA

TAF KTIK 051000Z 0510/0616 VRB06KT 9999 FEW200 QNH3006INS
BECMG 0601/0602 15009KT 4800 BR BKN007 QNH2991INS
BECMG 0612/0613 18015G25KT 9999 NSW SCT030 QNH2988INS TX17/0522Z TN00/0513Z

Example: see airport list